DBBB/COO METAR and TAF weather

Enter ICAO airport designator
Station Type Date Time Source
DBBB METAR 2018/01/19 17:00 UTC NOAA

DBBB 191700Z 21011KT 9999 FEW013 29/25 Q1009 NOSIG


Station Type Date Time Source
DBBB Decoded METAR 2018/01/19 17:00 UTC NOAA

Cotonou, Benin (DBBB) 06-21N 002-23E 9M
Jan 19, 2018 - 12:00 PM EST / 2018.01.19 1700 UTC
Wind: from the SSW (210 degrees) at 13 MPH (11 KT):0
Visibility: greater than 7 mile(s):0
Sky conditions: mostly clear
Temperature: 84 F (29 C)
Dew Point: 77 F (25 C)
Relative Humidity: 79%
Pressure (altimeter): 29.80 in. Hg (1009 hPa)
ob: DBBB 191700Z 21011KT 9999 FEW013 29/25 Q1009 NOSIG
cycle: 17

Station Type Date Time Source
DBBB TAF 2018/01/19 18:03 UTC NOAA

TAF TAF DBBB 191700Z 1918/2024 22010KT 8000 SCT012
BECMG 2002/2004 32004KT 3000 BR
BECMG 2009/2011 22010KT 8000 NSW
TEMPO 2014/2020 TS BKN010 FEW023CB


Example: see airport list